createdAt,value
2023-01-21T00:04:16.662Z,92.82
2023-01-21T00:09:16.634Z,92.82
2023-01-21T00:14:16.514Z,92.85
2023-01-21T00:19:16.447Z,92.65
2023-01-21T00:24:16.412Z,92.23
2023-01-21T00:29:16.654Z,92.54
2023-01-21T00:34:16.248Z,93.07
2023-01-21T00:39:16.219Z,94.46
2023-01-21T00:44:16.170Z,95.09
2023-01-21T00:49:16.099Z,95.20
2023-01-21T00:54:16.030Z,94.68
2023-01-21T00:59:15.951Z,94.46
2023-01-21T01:04:15.893Z,94.99
2023-01-21T01:09:15.816Z,95.09
2023-01-21T01:14:15.770Z,94.78
2023-01-21T01:19:15.690Z,94.89
2023-01-21T01:24:15.656Z,95.09
2023-01-21T01:29:15.566Z,95.31
2023-01-21T01:34:15.556Z,94.72
2023-01-21T01:39:15.718Z,94.89
2023-01-21T01:44:15.355Z,95.25
2023-01-21T01:49:15.362Z,96.29
2023-01-21T01:54:15.251Z,97.02
2023-01-21T01:59:15.149Z,97.23
2023-01-21T02:04:15.108Z,97.23
2023-01-21T02:09:15.061Z,96.71
2023-01-21T02:14:14.967Z,97.02
2023-01-21T02:19:14.927Z,96.55
2023-01-21T02:24:14.863Z,96.65
2023-01-21T02:29:14.779Z,96.33
2023-01-21T02:34:14.707Z,96.08
2023-01-21T02:39:14.693Z,95.76
2023-01-21T02:44:14.576Z,95.98
2023-01-21T02:49:14.501Z,95.56
2023-01-21T02:54:14.539Z,96.02
2023-01-21T02:59:14.404Z,95.56
2023-01-21T03:04:14.351Z,95.81
2023-01-21T03:09:14.287Z,96.55
2023-01-21T03:14:14.209Z,96.23
2023-01-21T03:19:14.230Z,95.70
2023-01-21T03:24:14.038Z,96.12
2023-01-21T03:29:13.974Z,96.75
2023-01-21T03:34:13.931Z,96.69
2023-01-21T03:39:13.906Z,97.22
2023-01-21T03:44:13.866Z,97.53
2023-01-21T03:49:13.738Z,97.69
2023-01-21T03:54:13.711Z,97.38
2023-01-21T03:59:13.689Z,97.28
2023-01-21T04:04:13.578Z,97.17
2023-01-21T04:09:13.488Z,97.91
2023-01-21T04:14:13.472Z,98.38
2023-01-21T04:19:13.359Z,98.01
2023-01-21T04:24:13.382Z,98.11
2023-01-21T04:29:13.331Z,98.37
2023-01-21T04:34:13.152Z,98.95
2023-01-21T04:39:13.160Z,99.00
2023-01-21T04:44:13.083Z,99.10
2023-01-21T04:49:12.994Z,99.00
2023-01-21T04:54:12.881Z,98.79
2023-01-21T04:59:12.821Z,98.89
2023-01-21T05:04:12.798Z,98.58
2023-01-21T05:09:12.794Z,97.95
2023-01-21T05:14:12.647Z,97.42
2023-01-21T05:19:12.607Z,97.63
2023-01-21T05:24:12.482Z,97.42
2023-01-21T05:29:12.610Z,97.53
2023-01-21T05:34:12.370Z,97.38
2023-01-21T05:39:12.330Z,96.69
2023-01-21T05:44:12.268Z,96.48
2023-01-21T05:49:12.273Z,96.48
2023-01-21T05:54:12.129Z,96.69
2023-01-21T05:59:12.082Z,96.90
2023-01-21T06:04:11.980Z,96.69
2023-01-21T06:09:11.940Z,96.75
2023-01-21T06:14:11.879Z,96.44
2023-01-21T06:19:11.815Z,96.75
2023-01-21T06:24:11.776Z,96.86
2023-01-21T06:29:11.726Z,96.75
2023-01-21T06:34:11.592Z,97.22
2023-01-21T06:39:11.577Z,97.11
2023-01-21T06:44:11.473Z,96.06
2023-01-21T06:49:11.411Z,95.07
2023-01-21T06:54:11.417Z,94.13
2023-01-21T06:59:11.285Z,93.30
2023-01-21T07:04:11.249Z,93.82
2023-01-21T07:09:11.196Z,93.71
2023-01-21T07:14:11.082Z,93.93
2023-01-21T07:19:11.046Z,94.13
2023-01-21T07:24:11.020Z,94.40
2023-01-21T07:29:10.925Z,93.51
2023-01-21T07:34:10.870Z,93.51
2023-01-21T07:39:10.785Z,93.26
2023-01-21T07:44:10.702Z,93.15
2023-01-21T07:49:10.652Z,93.26
2023-01-21T07:54:10.613Z,93.26
2023-01-21T07:59:10.567Z,93.78
2023-01-21T08:04:11.910Z,93.36
2023-01-21T08:09:10.499Z,93.67
2023-01-21T08:14:10.311Z,94.20
2023-01-21T08:19:12.550Z,94.36
2023-01-21T08:24:10.220Z,94.46
2023-01-21T08:29:10.486Z,93.74
2023-01-21T08:34:10.513Z,93.52
2023-01-21T08:39:10.124Z,93.38
2023-01-21T08:44:09.994Z,93.07
2023-01-21T08:49:09.967Z,92.60
2023-01-21T08:54:09.792Z,92.96
2023-01-21T08:59:09.938Z,93.27
2023-01-21T09:04:09.663Z,93.44
2023-01-21T09:09:09.696Z,92.82
2023-01-21T09:14:09.967Z,92.50
2023-01-21T09:19:09.518Z,92.40
2023-01-21T09:24:09.427Z,92.08
2023-01-21T09:29:09.399Z,91.62
2023-01-21T09:34:09.309Z,91.31
2023-01-21T09:39:09.429Z,91.06
2023-01-21T09:44:10.243Z,90.75
2023-01-21T09:49:09.372Z,90.43
2023-01-21T09:54:09.026Z,90.39
2023-01-21T09:59:09.100Z,90.43
2023-01-21T10:04:09.912Z,90.33
2023-01-21T10:09:08.909Z,89.66
2023-01-21T10:14:08.815Z,89.97
2023-01-21T10:19:08.763Z,89.87
2023-01-21T10:24:08.704Z,89.97
2023-01-21T10:29:08.692Z,89.76
2023-01-21T10:34:08.525Z,89.62
2023-01-21T10:39:08.427Z,88.64
2023-01-21T10:44:08.426Z,88.47
2023-01-21T10:49:08.337Z,87.84
2023-01-21T10:54:08.234Z,88.16
2023-01-21T10:59:08.261Z,88.37
2023-01-21T11:04:08.174Z,88.32
2023-01-21T11:09:08.274Z,88.26
2023-01-21T11:14:08.157Z,87.70
2023-01-21T11:19:07.998Z,87.39
2023-01-21T11:24:07.847Z,87.32
2023-01-21T11:29:07.787Z,87.91
2023-01-21T11:34:09.256Z,86.83
2023-01-21T11:39:07.792Z,87.55
2023-01-21T11:44:07.684Z,88.39
2023-01-21T11:49:07.544Z,89.12
2023-01-21T11:54:07.496Z,89.58
2023-01-21T11:59:07.420Z,90.31
2023-01-21T12:04:07.887Z,90.31
2023-01-21T12:09:07.271Z,89.89
2023-01-21T12:14:07.249Z,89.58
2023-01-21T12:19:07.137Z,90.10
2023-01-21T12:24:07.111Z,90.00
2023-01-21T12:29:07.373Z,89.89
2023-01-21T12:34:07.062Z,89.78
2023-01-21T12:39:07.209Z,89.54
2023-01-21T12:44:07.024Z,91.06
2023-01-21T12:49:08.500Z,87.71
2023-01-21T12:54:06.724Z,86.81
2023-01-21T12:59:06.619Z,88.73
2023-01-21T13:04:06.599Z,88.73
2023-01-21T13:09:06.586Z,89.14
2023-01-21T13:14:06.670Z,89.25
2023-01-21T13:19:06.450Z,89.20
2023-01-21T13:24:06.324Z,89.06
2023-01-21T13:29:06.217Z,90.56
2023-01-21T13:34:06.214Z,91.85
2023-01-21T13:39:06.144Z,93.14
2023-01-21T13:44:06.112Z,93.77
2023-01-21T13:49:06.045Z,94.60
2023-01-21T13:54:05.870Z,95.48
2023-01-21T13:59:06.120Z,96.11
2023-01-21T14:04:05.807Z,97.40
2023-01-21T14:09:05.708Z,97.92
2023-01-21T14:14:06.103Z,98.23
2023-01-21T14:19:05.749Z,98.59
2023-01-21T14:24:05.582Z,99.22
2023-01-21T14:29:05.439Z,99.84
2023-01-21T14:34:05.413Z,99.84
2023-01-21T14:39:05.329Z,99.95
2023-01-21T14:44:05.224Z,99.99
2023-01-21T14:49:05.354Z,99.99
2023-01-21T14:54:05.138Z,99.99
2023-01-21T14:59:05.036Z,99.99
2023-01-21T15:04:05.109Z,99.99
2023-01-21T15:09:04.922Z,99.99
2023-01-21T15:14:04.923Z,99.99
2023-01-21T15:19:04.790Z,99.99
2023-01-21T15:24:04.761Z,99.99
2023-01-21T15:29:04.666Z,99.99
2023-01-21T15:34:04.620Z,99.99
2023-01-21T15:39:04.575Z,99.99
2023-01-21T15:44:04.470Z,99.99
2023-01-21T15:49:04.439Z,99.99
2023-01-21T15:54:04.315Z,99.99
2023-01-21T15:59:04.266Z,99.99
2023-01-21T16:04:04.580Z,99.99
2023-01-21T16:09:04.274Z,99.99
2023-01-21T16:14:04.115Z,99.99
2023-01-21T16:19:04.296Z,99.99
2023-01-21T16:24:03.959Z,99.99
2023-01-21T16:29:03.910Z,99.99
2023-01-21T16:34:03.894Z,99.99
2023-01-21T16:39:03.947Z,99.99
2023-01-21T16:44:03.703Z,99.99
2023-01-21T16:49:03.770Z,99.99
2023-01-21T16:54:03.599Z,99.99
2023-01-21T16:59:03.481Z,99.99
2023-01-21T17:04:03.388Z,99.99
2023-01-21T17:09:03.346Z,99.99
2023-01-21T17:14:03.275Z,99.99
2023-01-21T17:19:03.271Z,99.99
2023-01-21T17:24:03.189Z,99.99
2023-01-21T17:29:03.098Z,99.99
2023-01-21T17:34:03.089Z,99.99
2023-01-21T17:39:02.956Z,99.99
2023-01-21T17:44:02.959Z,99.99
2023-01-21T17:49:02.839Z,99.99
2023-01-21T17:54:10.753Z,99.99
2023-01-21T17:59:02.684Z,99.69
2023-01-21T18:04:02.608Z,99.69
2023-01-21T18:09:02.613Z,99.90
2023-01-21T18:14:02.509Z,99.90
2023-01-21T18:19:02.441Z,99.99
2023-01-21T18:24:02.395Z,99.99
2023-01-21T18:29:02.332Z,99.99
2023-01-21T18:34:02.256Z,99.99
2023-01-21T18:39:02.155Z,99.99
2023-01-21T18:44:03.110Z,99.99
2023-01-21T18:49:02.115Z,99.99
2023-01-21T18:54:01.978Z,99.99
2023-01-21T18:59:02.013Z,99.99
2023-01-21T19:04:01.829Z,99.90
2023-01-21T19:09:01.837Z,99.90
2023-01-21T19:14:01.687Z,99.59
2023-01-21T19:19:03.698Z,99.38
2023-01-21T19:24:01.638Z,99.17
2023-01-21T19:29:01.557Z,99.27
2023-01-21T19:34:01.515Z,99.33
2023-01-21T19:39:01.652Z,99.13
2023-01-21T19:44:01.360Z,98.71
2023-01-21T19:49:01.281Z,98.86
2023-01-21T19:54:01.223Z,99.17
2023-01-21T19:59:01.145Z,98.86
2023-01-21T20:04:01.278Z,99.02
2023-01-21T20:09:01.031Z,98.19
2023-01-21T20:14:00.985Z,98.60
2023-01-21T20:19:00.878Z,98.08
2023-01-21T20:24:00.874Z,98.65
2023-01-21T20:29:00.729Z,98.86
2023-01-21T20:34:00.726Z,99.27
2023-01-21T20:39:00.814Z,99.48
2023-01-21T20:44:00.571Z,99.69
2023-01-21T20:49:00.487Z,99.69
2023-01-21T20:54:00.423Z,99.99
2023-01-21T20:59:00.348Z,99.99
2023-01-21T21:04:00.292Z,99.99
2023-01-21T21:09:00.217Z,99.99
2023-01-21T21:14:00.190Z,99.99
2023-01-21T21:19:00.121Z,99.99
2023-01-21T21:24:00.057Z,99.99
2023-01-21T21:28:59.962Z,99.99
2023-01-21T21:34:00.673Z,99.99
2023-01-21T21:38:59.838Z,99.99
2023-01-21T21:43:59.801Z,99.90
2023-01-21T21:48:59.715Z,99.99
2023-01-21T21:53:59.772Z,99.90
2023-01-21T21:59:00.039Z,99.99
2023-01-21T22:03:59.560Z,99.99
2023-01-21T22:08:59.430Z,99.99
2023-01-21T22:13:59.561Z,99.99
2023-01-21T22:18:59.662Z,99.99
2023-01-21T22:23:59.303Z,99.99
2023-01-21T22:28:59.217Z,99.90
2023-01-21T22:33:59.138Z,99.75
2023-01-21T22:38:59.065Z,99.59
2023-01-21T22:43:58.996Z,99.23
2023-01-21T22:48:58.963Z,99.13
2023-01-21T22:53:59.138Z,99.07
2023-01-21T22:58:58.836Z,98.86
2023-01-21T23:03:58.808Z,99.27
2023-01-21T23:08:58.714Z,99.07
2023-01-21T23:13:58.630Z,99.27
2023-01-21T23:18:58.529Z,98.96
2023-01-21T23:23:58.750Z,99.33
2023-01-21T23:29:02.309Z,99.23
2023-01-21T23:33:58.335Z,98.71
2023-01-21T23:38:58.387Z,98.75
2023-01-21T23:43:58.202Z,99.02
2023-01-21T23:48:58.407Z,98.96
2023-01-21T23:53:58.099Z,99.54
2023-01-21T23:58:58.043Z,98.75
